sensor_id;sensor_type;location;lat;lon;timestamp;temperature;humidity
76291;DHT22;65100;46.884;17.410;2022-12-07T00:01:34;2.21;88.36
76291;DHT22;65100;46.884;17.410;2022-12-07T00:04:02;2.15;88.00
76291;DHT22;65100;46.884;17.410;2022-12-07T00:06:36;2.12;88.61
76291;DHT22;65100;46.884;17.410;2022-12-07T00:09:03;2.25;87.92
76291;DHT22;65100;46.884;17.410;2022-12-07T00:11:29;2.05;89.63
76291;DHT22;65100;46.884;17.410;2022-12-07T00:13:57;2.30;88.09
76291;DHT22;65100;46.884;17.410;2022-12-07T00:16:25;2.48;87.65
76291;DHT22;65100;46.884;17.410;2022-12-07T00:18:51;2.57;86.87
76291;DHT22;65100;46.884;17.410;2022-12-07T00:21:19;2.30;87.37
76291;DHT22;65100;46.884;17.410;2022-12-07T00:23:46;2.54;87.11
76291;DHT22;65100;46.884;17.410;2022-12-07T00:26:18;2.62;86.55
76291;DHT22;65100;46.884;17.410;2022-12-07T00:28:48;2.59;86.58
76291;DHT22;65100;46.884;17.410;2022-12-07T00:31:15;2.60;87.18
76291;DHT22;65100;46.884;17.410;2022-12-07T00:33:41;2.54;87.45
76291;DHT22;65100;46.884;17.410;2022-12-07T00:36:09;2.64;88.05
76291;DHT22;65100;46.884;17.410;2022-12-07T00:38:36;2.63;88.40
76291;DHT22;65100;46.884;17.410;2022-12-07T00:41:05;2.66;88.43
76291;DHT22;65100;46.884;17.410;2022-12-07T00:43:31;2.66;87.91
76291;DHT22;65100;46.884;17.410;2022-12-07T00:45:56;2.46;86.36
76291;DHT22;65100;46.884;17.410;2022-12-07T00:48:22;2.28;88.22
76291;DHT22;65100;46.884;17.410;2022-12-07T00:50:49;2.01;88.60
76291;DHT22;65100;46.884;17.410;2022-12-07T00:53:15;2.12;89.07
76291;DHT22;65100;46.884;17.410;2022-12-07T00:55:40;2.38;88.76
76291;DHT22;65100;46.884;17.410;2022-12-07T00:58:06;2.33;87.76
76291;DHT22;65100;46.884;17.410;2022-12-07T01:00:32;2.28;88.43
76291;DHT22;65100;46.884;17.410;2022-12-07T01:02:58;2.40;87.83
76291;DHT22;65100;46.884;17.410;2022-12-07T01:05:24;1.99;88.93
76291;DHT22;65100;46.884;17.410;2022-12-07T01:07:49;1.78;89.95
76291;DHT22;65100;46.884;17.410;2022-12-07T01:10:15;1.77;90.02
76291;DHT22;65100;46.884;17.410;2022-12-07T01:12:40;1.74;90.63
76291;DHT22;65100;46.884;17.410;2022-12-07T01:15:07;1.97;90.88
76291;DHT22;65100;46.884;17.410;2022-12-07T01:17:33;2.26;88.85
76291;DHT22;65100;46.884;17.410;2022-12-07T01:19:59;2.29;87.61
76291;DHT22;65100;46.884;17.410;2022-12-07T01:22:25;2.05;88.75
76291;DHT22;65100;46.884;17.410;2022-12-07T01:24:50;1.79;89.49
76291;DHT22;65100;46.884;17.410;2022-12-07T01:27:16;1.84;89.34
76291;DHT22;65100;46.884;17.410;2022-12-07T01:29:41;1.72;89.72
76291;DHT22;65100;46.884;17.410;2022-12-07T01:32:07;1.85;89.20
76291;DHT22;65100;46.884;17.410;2022-12-07T01:34:32;1.92;88.50
76291;DHT22;65100;46.884;17.410;2022-12-07T01:36:58;1.72;88.14
76291;DHT22;65100;46.884;17.410;2022-12-07T01:39:23;1.72;88.37
76291;DHT22;65100;46.884;17.410;2022-12-07T01:41:49;1.82;88.36
76291;DHT22;65100;46.884;17.410;2022-12-07T01:44:31;1.68;88.30
76291;DHT22;65100;46.884;17.410;2022-12-07T01:47:03;1.58;89.64
76291;DHT22;65100;46.884;17.410;2022-12-07T01:49:38;1.50;89.60
76291;DHT22;65100;46.884;17.410;2022-12-07T01:52:13;1.68;90.57
76291;DHT22;65100;46.884;17.410;2022-12-07T01:54:40;1.41;90.46
76291;DHT22;65100;46.884;17.410;2022-12-07T01:57:07;1.36;91.26
76291;DHT22;65100;46.884;17.410;2022-12-07T01:59:33;1.58;91.34
76291;DHT22;65100;46.884;17.410;2022-12-07T02:02:00;1.74;90.80
76291;DHT22;65100;46.884;17.410;2022-12-07T02:04:27;2.05;90.30
76291;DHT22;65100;46.884;17.410;2022-12-07T02:06:54;2.16;90.41
76291;DHT22;65100;46.884;17.410;2022-12-07T02:09:20;2.48;88.86
76291;DHT22;65100;46.884;17.410;2022-12-07T02:11:45;2.70;87.66
76291;DHT22;65100;46.884;17.410;2022-12-07T02:14:11;2.62;86.95
76291;DHT22;65100;46.884;17.410;2022-12-07T02:17:12;2.40;88.09
76291;DHT22;65100;46.884;17.410;2022-12-07T02:27:52;2.36;89.40
76291;DHT22;65100;46.884;17.410;2022-12-07T02:30:22;2.45;89.27
76291;DHT22;65100;46.884;17.410;2022-12-07T02:32:53;2.26;88.41
76291;DHT22;65100;46.884;17.410;2022-12-07T02:35:42;1.97;90.65
76291;DHT22;65100;46.884;17.410;2022-12-07T02:38:16;1.89;89.86
76291;DHT22;65100;46.884;17.410;2022-12-07T02:41:17;1.70;91.28
76291;DHT22;65100;46.884;17.410;2022-12-07T02:43:54;1.71;91.44
76291;DHT22;65100;46.884;17.410;2022-12-07T02:46:24;1.97;91.58
76291;DHT22;65100;46.884;17.410;2022-12-07T02:48:51;1.91;90.83
76291;DHT22;65100;46.884;17.410;2022-12-07T02:51:18;1.91;91.38
76291;DHT22;65100;46.884;17.410;2022-12-07T02:53:44;1.85;90.37
76291;DHT22;65100;46.884;17.410;2022-12-07T03:04:24;1.37;91.19
76291;DHT22;65100;46.884;17.410;2022-12-07T03:07:00;1.60;91.00
76291;DHT22;65100;46.884;17.410;2022-12-07T03:15:31;1.58;93.50
76291;DHT22;65100;46.884;17.410;2022-12-07T03:17:59;1.44;92.48
76291;DHT22;65100;46.884;17.410;2022-12-07T03:20:27;2.01;92.58
76291;DHT22;65100;46.884;17.410;2022-12-07T03:22:54;2.30;91.10
76291;DHT22;65100;46.884;17.410;2022-12-07T03:25:20;2.25;89.90
76291;DHT22;65100;46.884;17.410;2022-12-07T03:27:51;2.43;90.11
76291;DHT22;65100;46.884;17.410;2022-12-07T03:30:30;2.49;90.46
76291;DHT22;65100;46.884;17.410;2022-12-07T03:33:15;2.50;90.54
76291;DHT22;65100;46.884;17.410;2022-12-07T03:35:48;2.43;89.83
76291;DHT22;65100;46.884;17.410;2022-12-07T03:38:21;2.45;89.84
76291;DHT22;65100;46.884;17.410;2022-12-07T03:41:12;2.40;89.23
76291;DHT22;65100;46.884;17.410;2022-12-07T03:43:40;2.40;90.22
76291;DHT22;65100;46.884;17.410;2022-12-07T03:49:11;2.09;89.86
76291;DHT22;65100;46.884;17.410;2022-12-07T03:52:02;2.01;90.03
76291;DHT22;65100;46.884;17.410;2022-12-07T03:57:25;1.89;89.64
76291;DHT22;65100;46.884;17.410;2022-12-07T03:59:54;1.89;90.64
76291;DHT22;65100;46.884;17.410;2022-12-07T04:02:20;2.11;89.42
76291;DHT22;65100;46.884;17.410;2022-12-07T04:04:45;2.14;89.22
76291;DHT22;65100;46.884;17.410;2022-12-07T04:07:14;1.78;90.93
76291;DHT22;65100;46.884;17.410;2022-12-07T04:09:39;2.01;90.67
76291;DHT22;65100;46.884;17.410;2022-12-07T04:12:05;1.98;90.35
76291;DHT22;65100;46.884;17.410;2022-12-07T04:14:30;2.12;90.33
76291;DHT22;65100;46.884;17.410;2022-12-07T04:16:57;2.06;91.22
76291;DHT22;65100;46.884;17.410;2022-12-07T04:19:31;1.81;90.93
76291;DHT22;65100;46.884;17.410;2022-12-07T04:21:59;2.14;90.23
76291;DHT22;65100;46.884;17.410;2022-12-07T04:24:25;1.99;89.90
76291;DHT22;65100;46.884;17.410;2022-12-07T04:26:51;1.82;89.46
76291;DHT22;65100;46.884;17.410;2022-12-07T04:29:20;2.08;90.14
76291;DHT22;65100;46.884;17.410;2022-12-07T04:31:46;2.16;88.96
76291;DHT22;65100;46.884;17.410;2022-12-07T04:34:12;2.09;90.51
76291;DHT22;65100;46.884;17.410;2022-12-07T04:36:38;1.98;89.70
76291;DHT22;65100;46.884;17.410;2022-12-07T04:39:05;2.18;90.57
76291;DHT22;65100;46.884;17.410;2022-12-07T04:41:31;2.29;89.49
76291;DHT22;65100;46.884;17.410;2022-12-07T04:43:59;2.28;89.95
76291;DHT22;65100;46.884;17.410;2022-12-07T04:46:27;2.40;90.05
76291;DHT22;65100;46.884;17.410;2022-12-07T04:48:54;2.45;88.94
76291;DHT22;65100;46.884;17.410;2022-12-07T04:51:23;2.29;88.83
76291;DHT22;65100;46.884;17.410;2022-12-07T04:53:49;2.46;88.80
76291;DHT22;65100;46.884;17.410;2022-12-07T04:56:15;2.16;89.09
76291;DHT22;65100;46.884;17.410;2022-12-07T04:58:42;2.35;89.46
76291;DHT22;65100;46.884;17.410;2022-12-07T05:01:08;2.59;88.80
76291;DHT22;65100;46.884;17.410;2022-12-07T05:03:35;2.69;87.35
76291;DHT22;65100;46.884;17.410;2022-12-07T05:06:00;2.63;87.23
76291;DHT22;65100;46.884;17.410;2022-12-07T05:08:25;2.70;87.11
76291;DHT22;65100;46.884;17.410;2022-12-07T05:10:51;2.76;87.16
76291;DHT22;65100;46.884;17.410;2022-12-07T05:13:16;2.69;87.88
76291;DHT22;65100;46.884;17.410;2022-12-07T05:15:42;2.87;88.21
76291;DHT22;65100;46.884;17.410;2022-12-07T05:18:09;2.99;88.26
76291;DHT22;65100;46.884;17.410;2022-12-07T05:20:35;2.76;87.07
76291;DHT22;65100;46.884;17.410;2022-12-07T05:23:00;2.52;88.36
76291;DHT22;65100;46.884;17.410;2022-12-07T05:25:26;2.69;88.73
76291;DHT22;65100;46.884;17.410;2022-12-07T05:27:51;2.54;89.83
76291;DHT22;65100;46.884;17.410;2022-12-07T05:30:17;2.54;89.61
76291;DHT22;65100;46.884;17.410;2022-12-07T05:32:42;2.36;90.19
76291;DHT22;65100;46.884;17.410;2022-12-07T05:35:08;2.28;89.80
76291;DHT22;65100;46.884;17.410;2022-12-07T05:37:33;2.62;89.72
76291;DHT22;65100;46.884;17.410;2022-12-07T05:39:59;2.59;89.38
76291;DHT22;65100;46.884;17.410;2022-12-07T05:42:24;2.52;89.52
76291;DHT22;65100;46.884;17.410;2022-12-07T05:44:50;2.45;90.61
76291;DHT22;65100;46.884;17.410;2022-12-07T05:47:15;2.64;89.44
76291;DHT22;65100;46.884;17.410;2022-12-07T05:49:41;2.39;90.23
76291;DHT22;65100;46.884;17.410;2022-12-07T05:52:07;2.26;91.25
76291;DHT22;65100;46.884;17.410;2022-12-07T05:54:33;2.46;91.18
76291;DHT22;65100;46.884;17.410;2022-12-07T05:56:58;2.59;89.57
76291;DHT22;65100;46.884;17.410;2022-12-07T05:59:24;2.40;90.35
76291;DHT22;65100;46.884;17.410;2022-12-07T06:01:59;2.21;90.76
76291;DHT22;65100;46.884;17.410;2022-12-07T06:04:27;2.21;91.09
76291;DHT22;65100;46.884;17.410;2022-12-07T06:06:53;2.48;90.66
76291;DHT22;65100;46.884;17.410;2022-12-07T06:09:20;2.54;89.67
76291;DHT22;65100;46.884;17.410;2022-12-07T06:11:46;2.56;90.50
76291;DHT22;65100;46.884;17.410;2022-12-07T06:14:30;2.67;88.96
76291;DHT22;65100;46.884;17.410;2022-12-07T06:16:56;2.54;89.12
76291;DHT22;65100;46.884;17.410;2022-12-07T06:19:21;2.32;90.21
76291;DHT22;65100;46.884;17.410;2022-12-07T06:21:47;2.18;91.30
76291;DHT22;65100;46.884;17.410;2022-12-07T06:24:14;2.38;91.56
76291;DHT22;65100;46.884;17.410;2022-12-07T06:26:40;2.21;91.59
76291;DHT22;65100;46.884;17.410;2022-12-07T06:29:05;2.75;91.13
76291;DHT22;65100;46.884;17.410;2022-12-07T06:31:31;2.97;89.20
76291;DHT22;65100;46.884;17.410;2022-12-07T06:34:01;3.10;88.07
76291;DHT22;65100;46.884;17.410;2022-12-07T06:36:28;3.04;88.10
76291;DHT22;65100;46.884;17.410;2022-12-07T06:38:53;3.06;87.87
76291;DHT22;65100;46.884;17.410;2022-12-07T06:41:19;2.96;88.15
76291;DHT22;65100;46.884;17.410;2022-12-07T06:43:45;3.01;88.11
76291;DHT22;65100;46.884;17.410;2022-12-07T06:46:10;3.06;87.68
76291;DHT22;65100;46.884;17.410;2022-12-07T06:48:35;3.17;88.06
76291;DHT22;65100;46.884;17.410;2022-12-07T06:51:01;3.23;86.84
76291;DHT22;65100;46.884;17.410;2022-12-07T06:53:26;3.13;85.71
76291;DHT22;65100;46.884;17.410;2022-12-07T06:55:52;3.11;86.98
76291;DHT22;65100;46.884;17.410;2022-12-07T06:58:18;3.28;86.80
76291;DHT22;65100;46.884;17.410;2022-12-07T07:00:44;3.20;86.63
76291;DHT22;65100;46.884;17.410;2022-12-07T07:03:10;3.04;86.86
76291;DHT22;65100;46.884;17.410;2022-12-07T07:05:35;2.75;88.43
76291;DHT22;65100;46.884;17.410;2022-12-07T07:08:01;2.77;87.75
76291;DHT22;65100;46.884;17.410;2022-12-07T07:10:27;2.79;88.60
76291;DHT22;65100;46.884;17.410;2022-12-07T07:12:53;2.82;89.42
76291;DHT22;65100;46.884;17.410;2022-12-07T07:15:18;2.79;88.28
76291;DHT22;65100;46.884;17.410;2022-12-07T07:17:44;2.87;88.47
76291;DHT22;65100;46.884;17.410;2022-12-07T07:20:10;3.21;87.66
76291;DHT22;65100;46.884;17.410;2022-12-07T07:22:36;3.14;87.92
76291;DHT22;65100;46.884;17.410;2022-12-07T07:25:02;3.42;86.65
76291;DHT22;65100;46.884;17.410;2022-12-07T07:27:27;3.48;87.08
76291;DHT22;65100;46.884;17.410;2022-12-07T07:29:53;3.21;88.18
76291;DHT22;65100;46.884;17.410;2022-12-07T07:32:18;3.28;88.24
76291;DHT22;65100;46.884;17.410;2022-12-07T07:34:44;3.37;87.70
76291;DHT22;65100;46.884;17.410;2022-12-07T07:37:10;3.07;86.83
76291;DHT22;65100;46.884;17.410;2022-12-07T07:39:38;3.03;87.61
76291;DHT22;65100;46.884;17.410;2022-12-07T07:42:03;3.01;87.61
76291;DHT22;65100;46.884;17.410;2022-12-07T07:44:29;3.28;87.00
76291;DHT22;65100;46.884;17.410;2022-12-07T07:46:54;3.08;89.27
76291;DHT22;65100;46.884;17.410;2022-12-07T07:49:20;3.04;90.46
76291;DHT22;65100;46.884;17.410;2022-12-07T07:51:46;3.03;89.86
76291;DHT22;65100;46.884;17.410;2022-12-07T07:54:11;3.31;89.15
76291;DHT22;65100;46.884;17.410;2022-12-07T07:56:37;3.32;88.80
76291;DHT22;65100;46.884;17.410;2022-12-07T07:59:03;3.47;88.15
76291;DHT22;65100;46.884;17.410;2022-12-07T08:01:29;3.41;87.99
76291;DHT22;65100;46.884;17.410;2022-12-07T08:03:54;3.81;88.10
76291;DHT22;65100;46.884;17.410;2022-12-07T08:06:19;3.83;87.89
76291;DHT22;65100;46.884;17.410;2022-12-07T08:08:45;3.96;88.77
76291;DHT22;65100;46.884;17.410;2022-12-07T08:11:11;4.26;86.38
76291;DHT22;65100;46.884;17.410;2022-12-07T08:13:36;4.28;87.22
76291;DHT22;65100;46.884;17.410;2022-12-07T08:16:08;4.10;85.53
76291;DHT22;65100;46.884;17.410;2022-12-07T08:18:38;4.09;86.47
76291;DHT22;65100;46.884;17.410;2022-12-07T08:21:05;3.86;87.03
76291;DHT22;65100;46.884;17.410;2022-12-07T08:23:31;3.92;87.02
76291;DHT22;65100;46.884;17.410;2022-12-07T08:26:11;3.68;87.90
76291;DHT22;65100;46.884;17.410;2022-12-07T08:28:37;4.05;88.56
76291;DHT22;65100;46.884;17.410;2022-12-07T08:31:11;4.15;87.08
76291;DHT22;65100;46.884;17.410;2022-12-07T08:33:37;4.22;87.42
76291;DHT22;65100;46.884;17.410;2022-12-07T08:36:05;4.22;88.07
76291;DHT22;65100;46.884;17.410;2022-12-07T08:38:30;4.37;86.21
76291;DHT22;65100;46.884;17.410;2022-12-07T08:40:56;4.22;87.15
76291;DHT22;65100;46.884;17.410;2022-12-07T08:43:22;4.05;88.15
76291;DHT22;65100;46.884;17.410;2022-12-07T08:48:25;4.37;88.02
76291;DHT22;65100;46.884;17.410;2022-12-07T08:50:50;4.54;87.63
76291;DHT22;65100;46.884;17.410;2022-12-07T08:53:16;4.63;87.11
76291;DHT22;65100;46.884;17.410;2022-12-07T08:55:44;4.69;87.77
76291;DHT22;65100;46.884;17.410;2022-12-07T08:58:10;4.80;86.85
76291;DHT22;65100;46.884;17.410;2022-12-07T09:00:35;4.59;88.37
76291;DHT22;65100;46.884;17.410;2022-12-07T09:03:01;4.83;88.53
76291;DHT22;65100;46.884;17.410;2022-12-07T09:05:26;4.81;87.17
76291;DHT22;65100;46.884;17.410;2022-12-07T09:07:56;4.88;86.56
76291;DHT22;65100;46.884;17.410;2022-12-07T09:10:22;4.87;86.29
76291;DHT22;65100;46.884;17.410;2022-12-07T09:12:48;4.90;86.33
76291;DHT22;65100;46.884;17.410;2022-12-07T09:15:14;4.97;85.70
76291;DHT22;65100;46.884;17.410;2022-12-07T09:17:40;4.94;85.96
76291;DHT22;65100;46.884;17.410;2022-12-07T09:20:05;4.76;87.51
76291;DHT22;65100;46.884;17.410;2022-12-07T09:22:32;5.05;86.85
76291;DHT22;65100;46.884;17.410;2022-12-07T09:24:58;5.28;86.20
76291;DHT22;65100;46.884;17.410;2022-12-07T09:27:24;5.31;85.82
76291;DHT22;65100;46.884;17.410;2022-12-07T09:29:49;5.23;86.34
76291;DHT22;65100;46.884;17.410;2022-12-07T09:32:15;5.31;87.46
76291;DHT22;65100;46.884;17.410;2022-12-07T09:34:40;5.39;87.22
76291;DHT22;65100;46.884;17.410;2022-12-07T09:37:06;5.35;86.66
76291;DHT22;65100;46.884;17.410;2022-12-07T09:39:32;5.58;86.50
76291;DHT22;65100;46.884;17.410;2022-12-07T09:41:59;5.66;89.05
76291;DHT22;65100;46.884;17.410;2022-12-07T09:44:26;5.65;90.60
76291;DHT22;65100;46.884;17.410;2022-12-07T09:46:54;5.65;90.31
76291;DHT22;65100;46.884;17.410;2022-12-07T09:49:23;5.76;90.46
76291;DHT22;65100;46.884;17.410;2022-12-07T09:52:24;5.71;89.97
76291;DHT22;65100;46.884;17.410;2022-12-07T09:54:50;5.89;87.48
76291;DHT22;65100;46.884;17.410;2022-12-07T09:57:17;6.10;86.32
76291;DHT22;65100;46.884;17.410;2022-12-07T09:59:43;5.96;86.16
76291;DHT22;65100;46.884;17.410;2022-12-07T10:04:47;5.91;86.35
76291;DHT22;65100;46.884;17.410;2022-12-07T10:07:15;6.15;85.18
76291;DHT22;65100;46.884;17.410;2022-12-07T10:09:41;6.09;85.30
76291;DHT22;65100;46.884;17.410;2022-12-07T10:12:09;6.29;84.64
76291;DHT22;65100;46.884;17.410;2022-12-07T10:14:37;6.05;85.42
76291;DHT22;65100;46.884;17.410;2022-12-07T10:17:31;5.93;85.71
76291;DHT22;65100;46.884;17.410;2022-12-07T10:22:37;6.25;84.98
76291;DHT22;65100;46.884;17.410;2022-12-07T10:25:20;6.13;85.31
76291;DHT22;65100;46.884;17.410;2022-12-07T10:27:58;6.37;84.72
76291;DHT22;65100;46.884;17.410;2022-12-07T10:30:24;6.25;84.79
76291;DHT22;65100;46.884;17.410;2022-12-07T10:32:49;6.03;85.32
76291;DHT22;65100;46.884;17.410;2022-12-07T10:35:26;5.99;85.99
76291;DHT22;65100;46.884;17.410;2022-12-07T10:37:53;6.46;85.16
76291;DHT22;65100;46.884;17.410;2022-12-07T10:40:32;6.41;86.86
76291;DHT22;65100;46.884;17.410;2022-12-07T10:43:08;6.69;85.50
76291;DHT22;65100;46.884;17.410;2022-12-07T10:49:25;6.53;84.15
76291;DHT22;65100;46.884;17.410;2022-12-07T10:51:54;6.64;84.20
76291;DHT22;65100;46.884;17.410;2022-12-07T11:00:12;6.56;84.22
76291;DHT22;65100;46.884;17.410;2022-12-07T11:03:02;6.70;84.33
76291;DHT22;65100;46.884;17.410;2022-12-07T11:08:57;6.76;84.07
76291;DHT22;65100;46.884;17.410;2022-12-07T11:12:12;7.00;83.08
76291;DHT22;65100;46.884;17.410;2022-12-07T11:14:36;7.03;83.30
76291;DHT22;65100;46.884;17.410;2022-12-07T11:28:11;7.12;83.39
76291;DHT22;65100;46.884;17.410;2022-12-07T11:33:53;7.17;83.43
76291;DHT22;65100;46.884;17.410;2022-12-07T11:36:45;7.00;82.69
76291;DHT22;65100;46.884;17.410;2022-12-07T11:41:54;6.98;84.60
76291;DHT22;65100;46.884;17.410;2022-12-07T11:44:31;6.91;84.56
76291;DHT22;65100;46.884;17.410;2022-12-07T11:52:44;7.55;82.47
76291;DHT22;65100;46.884;17.410;2022-12-07T12:00:51;7.56;82.90
76291;DHT22;65100;46.884;17.410;2022-12-07T12:03:28;7.75;82.21
76291;DHT22;65100;46.884;17.410;2022-12-07T12:05:57;7.45;81.93
76291;DHT22;65100;46.884;17.410;2022-12-07T12:08:39;7.54;81.99
76291;DHT22;65100;46.884;17.410;2022-12-07T12:22:10;7.90;79.16
76291;DHT22;65100;46.884;17.410;2022-12-07T12:24:38;7.82;79.02
76291;DHT22;65100;46.884;17.410;2022-12-07T12:27:17;7.99;78.47
76291;DHT22;65100;46.884;17.410;2022-12-07T12:29:53;8.19;77.81
76291;DHT22;65100;46.884;17.410;2022-12-07T12:32:22;8.16;75.56
76291;DHT22;65100;46.884;17.410;2022-12-07T12:35:21;8.04;78.49
76291;DHT22;65100;46.884;17.410;2022-12-07T12:37:50;8.17;75.31
76291;DHT22;65100;46.884;17.410;2022-12-07T12:42:50;8.27;68.99
76291;DHT22;65100;46.884;17.410;2022-12-07T12:45:32;8.25;67.49
76291;DHT22;65100;46.884;17.410;2022-12-07T12:47:59;8.04;67.97
76291;DHT22;65100;46.884;17.410;2022-12-07T12:50:35;8.17;66.59
76291;DHT22;65100;46.884;17.410;2022-12-07T12:58:29;8.14;73.53
76291;DHT22;65100;46.884;17.410;2022-12-07T13:01:36;8.16;73.75
76291;DHT22;65100;46.884;17.410;2022-12-07T13:04:18;8.17;74.62
76291;DHT22;65100;46.884;17.410;2022-12-07T13:06:47;8.16;73.55
76291;DHT22;65100;46.884;17.410;2022-12-07T13:09:21;8.17;73.26
76291;DHT22;65100;46.884;17.410;2022-12-07T13:11:48;8.23;74.71
76291;DHT22;65100;46.884;17.410;2022-12-07T13:19:55;8.16;72.41
76291;DHT22;65100;46.884;17.410;2022-12-07T13:25:05;8.12;71.56
76291;DHT22;65100;46.884;17.410;2022-12-07T13:27:33;8.07;72.48
76291;DHT22;65100;46.884;17.410;2022-12-07T13:29:59;8.14;74.88
76291;DHT22;65100;46.884;17.410;2022-12-07T13:32:27;8.14;73.12
76291;DHT22;65100;46.884;17.410;2022-12-07T13:34:53;8.04;72.36
76291;DHT22;65100;46.884;17.410;2022-12-07T13:37:26;8.02;73.27
76291;DHT22;65100;46.884;17.410;2022-12-07T13:40:17;7.96;70.57
76291;DHT22;65100;46.884;17.410;2022-12-07T13:42:44;7.90;72.20
76291;DHT22;65100;46.884;17.410;2022-12-07T13:45:27;7.90;72.36
76291;DHT22;65100;46.884;17.410;2022-12-07T13:48:24;7.78;73.03
76291;DHT22;65100;46.884;17.410;2022-12-07T13:50:55;7.79;73.44
76291;DHT22;65100;46.884;17.410;2022-12-07T13:53:21;7.76;72.97
76291;DHT22;65100;46.884;17.410;2022-12-07T13:55:47;7.68;74.17
76291;DHT22;65100;46.884;17.410;2022-12-07T13:58:13;7.72;73.70
76291;DHT22;65100;46.884;17.410;2022-12-07T14:00:40;7.78;73.03
76291;DHT22;65100;46.884;17.410;2022-12-07T14:05:42;7.66;73.48
76291;DHT22;65100;46.884;17.410;2022-12-07T14:10:42;7.51;75.49
76291;DHT22;65100;46.884;17.410;2022-12-07T14:13:38;7.41;75.66
76291;DHT22;65100;46.884;17.410;2022-12-07T14:16:26;7.18;78.38
76291;DHT22;65100;46.884;17.410;2022-12-07T14:18:53;7.51;77.42
76291;DHT22;65100;46.884;17.410;2022-12-07T14:21:21;7.63;76.77
76291;DHT22;65100;46.884;17.410;2022-12-07T14:24:10;7.61;76.33
76291;DHT22;65100;46.884;17.410;2022-12-07T14:26:40;7.56;76.45
76291;DHT22;65100;46.884;17.410;2022-12-07T14:29:22;7.42;77.59
76291;DHT22;65100;46.884;17.410;2022-12-07T14:32:17;7.36;77.65
76291;DHT22;65100;46.884;17.410;2022-12-07T14:35:11;7.19;78.85
76291;DHT22;65100;46.884;17.410;2022-12-07T14:37:38;6.87;79.10
76291;DHT22;65100;46.884;17.410;2022-12-07T14:40:04;7.14;78.74
76291;DHT22;65100;46.884;17.410;2022-12-07T14:42:31;7.24;77.45
76291;DHT22;65100;46.884;17.410;2022-12-07T14:44:57;7.35;76.89
76291;DHT22;65100;46.884;17.410;2022-12-07T14:47:24;7.36;76.87
76291;DHT22;65100;46.884;17.410;2022-12-07T14:49:50;7.38;77.12
76291;DHT22;65100;46.884;17.410;2022-12-07T14:52:28;7.39;76.69
76291;DHT22;65100;46.884;17.410;2022-12-07T14:54:55;7.07;78.39
76291;DHT22;65100;46.884;17.410;2022-12-07T14:57:21;7.04;79.29
76291;DHT22;65100;46.884;17.410;2022-12-07T14:59:46;7.04;78.76
76291;DHT22;65100;46.884;17.410;2022-12-07T15:02:13;7.04;79.37
76291;DHT22;65100;46.884;17.410;2022-12-07T15:04:39;6.85;80.53
76291;DHT22;65100;46.884;17.410;2022-12-07T15:07:09;6.83;81.61
76291;DHT22;65100;46.884;17.410;2022-12-07T15:09:35;6.88;80.68
76291;DHT22;65100;46.884;17.410;2022-12-07T15:12:01;6.79;80.25
76291;DHT22;65100;46.884;17.410;2022-12-07T15:14:26;6.66;81.10
76291;DHT22;65100;46.884;17.410;2022-12-07T15:16:51;6.74;82.25
76291;DHT22;65100;46.884;17.410;2022-12-07T15:19:23;6.85;82.45
76291;DHT22;65100;46.884;17.410;2022-12-07T15:21:51;6.76;83.00
76291;DHT22;65100;46.884;17.410;2022-12-07T15:24:17;6.79;82.89
76291;DHT22;65100;46.884;17.410;2022-12-07T15:26:42;6.64;82.97
76291;DHT22;65100;46.884;17.410;2022-12-07T15:29:09;6.60;82.73
76291;DHT22;65100;46.884;17.410;2022-12-07T15:31:35;6.33;83.50
76291;DHT22;65100;46.884;17.410;2022-12-07T15:34:01;6.12;84.39
76291;DHT22;65100;46.884;17.410;2022-12-07T15:36:29;6.16;84.18
76291;DHT22;65100;46.884;17.410;2022-12-07T15:38:55;6.09;83.70
76291;DHT22;65100;46.884;17.410;2022-12-07T15:41:30;6.16;83.81
76291;DHT22;65100;46.884;17.410;2022-12-07T15:43:56;5.88;84.39
76291;DHT22;65100;46.884;17.410;2022-12-07T15:46:41;5.81;85.06
76291;DHT22;65100;46.884;17.410;2022-12-07T15:49:12;5.49;85.48
76291;DHT22;65100;46.884;17.410;2022-12-07T15:51:39;5.25;86.51
76291;DHT22;65100;46.884;17.410;2022-12-07T15:54:04;5.32;86.47
76291;DHT22;65100;46.884;17.410;2022-12-07T15:56:30;5.58;85.46
76291;DHT22;65100;46.884;17.410;2022-12-07T15:58:56;5.73;84.46
76291;DHT22;65100;46.884;17.410;2022-12-07T16:01:22;5.81;84.15
76291;DHT22;65100;46.884;17.410;2022-12-07T16:03:47;5.51;85.19
76291;DHT22;65100;46.884;17.410;2022-12-07T16:06:16;5.14;86.37
76291;DHT22;65100;46.884;17.410;2022-12-07T16:08:46;4.91;87.60
76291;DHT22;65100;46.884;17.410;2022-12-07T16:11:12;4.87;87.44
76291;DHT22;65100;46.884;17.410;2022-12-07T16:13:38;4.61;88.43
76291;DHT22;65100;46.884;17.410;2022-12-07T16:16:06;4.59;88.01
76291;DHT22;65100;46.884;17.410;2022-12-07T16:18:32;4.76;87.12
76291;DHT22;65100;46.884;17.410;2022-12-07T16:20:58;4.63;88.00
76291;DHT22;65100;46.884;17.410;2022-12-07T16:23:23;4.50;87.66
76291;DHT22;65100;46.884;17.410;2022-12-07T16:25:49;4.45;87.84
76291;DHT22;65100;46.884;17.410;2022-12-07T16:28:14;4.35;87.66
76291;DHT22;65100;46.884;17.410;2022-12-07T16:30:39;4.29;87.83
76291;DHT22;65100;46.884;17.410;2022-12-07T16:33:05;4.29;88.47
76291;DHT22;65100;46.884;17.410;2022-12-07T16:35:31;4.64;89.16
76291;DHT22;65100;46.884;17.410;2022-12-07T16:37:56;5.08;87.69
76291;DHT22;65100;46.884;17.410;2022-12-07T16:40:22;5.04;83.69
76291;DHT22;65100;46.884;17.410;2022-12-07T16:42:47;4.91;83.50
76291;DHT22;65100;46.884;17.410;2022-12-07T16:45:13;4.87;82.96
76291;DHT22;65100;46.884;17.410;2022-12-07T16:47:39;4.79;82.76
76291;DHT22;65100;46.884;17.410;2022-12-07T16:50:05;4.67;81.78
76291;DHT22;65100;46.884;17.410;2022-12-07T16:52:30;4.52;82.30
76291;DHT22;65100;46.884;17.410;2022-12-07T16:54:56;4.45;82.24
76291;DHT22;65100;46.884;17.410;2022-12-07T16:57:21;4.22;82.94
76291;DHT22;65100;46.884;17.410;2022-12-07T16:59:47;4.12;83.66
76291;DHT22;65100;46.884;17.410;2022-12-07T17:02:12;4.03;83.56
76291;DHT22;65100;46.884;17.410;2022-12-07T17:04:38;3.94;82.47
76291;DHT22;65100;46.884;17.410;2022-12-07T17:07:05;3.82;83.06
76291;DHT22;65100;46.884;17.410;2022-12-07T17:09:31;3.70;84.27
76291;DHT22;65100;46.884;17.410;2022-12-07T17:11:56;3.70;84.26
76291;DHT22;65100;46.884;17.410;2022-12-07T17:14:22;3.67;83.74
76291;DHT22;65100;46.884;17.410;2022-12-07T17:17:06;3.67;85.39
76291;DHT22;65100;46.884;17.410;2022-12-07T17:19:31;3.81;85.87
76291;DHT22;65100;46.884;17.410;2022-12-07T17:21:57;3.92;85.67
76291;DHT22;65100;46.884;17.410;2022-12-07T17:24:22;3.91;85.32
76291;DHT22;65100;46.884;17.410;2022-12-07T17:26:48;3.79;84.59
76291;DHT22;65100;46.884;17.410;2022-12-07T17:29:15;3.65;84.82
76291;DHT22;65100;46.884;17.410;2022-12-07T17:31:41;3.57;83.82